Time;durP1;ratioP1;P1;durP2;ratioP2;P2;SDS_P1;SDS_P2;PMS_P1;PMS_P2;Temp;Humidity;BMP_temperature;BMP_pressure;BME280_temperature;BME280_humidity;BME280_pressure;Samples;Min_cycle;Max_cycle;Signal;HPM_P1;HPM_P2
2023/06/04 00:02:08;;;;;;;10.50;8.47;;;14.30;99.90;;;;;;4994719;28;20208;-77
2023/06/04 00:04:35;;;;;;;9.37;7.90;;;14.30;99.90;;;;;;4998886;28;20263;-77
2023/06/04 00:07:02;;;;;;;10.47;8.00;;;14.20;99.90;;;;;;4996201;28;20204;-78
2023/06/04 00:09:30;;;;;;;9.77;7.83;;;14.20;99.90;;;;;;4992945;28;20224;-77
2023/06/04 00:11:57;;;;;;;11.13;7.77;;;14.20;99.90;;;;;;4994227;28;20198;-77
2023/06/04 00:14:24;;;;;;;11.60;7.83;;;14.20;99.90;;;;;;4993533;28;20196;-78
2023/06/04 00:16:50;;;;;;;9.97;8.20;;;14.10;99.90;;;;;;4976711;28;20201;-77
2023/06/04 00:19:17;;;;;;;9.73;7.90;;;14.10;99.90;;;;;;4993059;28;20220;-78
2023/06/04 00:21:44;;;;;;;11.23;8.23;;;14.10;99.90;;;;;;4976501;28;20743;-78
2023/06/04 00:24:12;;;;;;;10.17;8.03;;;14.00;99.90;;;;;;4976654;28;20664;-77
2023/06/04 00:26:40;;;;;;;11.43;8.00;;;14.00;99.90;;;;;;4976154;28;20226;-78
2023/06/04 00:29:07;;;;;;;11.33;9.23;;;13.90;99.90;;;;;;4992554;28;20227;-78
2023/06/04 00:31:34;;;;;;;11.30;7.97;;;13.90;99.90;;;;;;4976514;28;20696;-79
2023/06/04 00:34:00;;;;;;;12.53;9.33;;;13.90;99.90;;;;;;5000586;28;20214;-78
2023/06/04 00:36:27;;;;;;;10.20;8.37;;;13.90;99.90;;;;;;4975943;28;20289;-77
2023/06/04 00:38:54;;;;;;;11.83;9.00;;;13.90;99.90;;;;;;4976072;28;20232;-78
2023/06/04 00:41:21;;;;;;;12.07;9.20;;;13.90;99.90;;;;;;4992974;28;20205;-78
2023/06/04 00:43:55;;;;;;;12.33;9.27;;;13.80;99.90;;;;;;4976381;28;20205;-77
2023/06/04 00:46:25;;;;;;;12.13;10.53;;;13.70;99.90;;;;;;4975828;28;20592;-77
2023/06/04 00:48:52;;;;;;;15.47;9.73;;;13.70;99.90;;;;;;4994131;28;20217;-77
2023/06/04 00:51:20;;;;;;;12.53;10.90;;;13.70;99.90;;;;;;4993572;28;20630;-78
2023/06/04 00:53:47;;;;;;;12.70;10.47;;;13.70;99.90;;;;;;4968057;28;20200;-77
2023/06/04 00:56:14;;;;;;;10.70;9.60;;;13.70;99.90;;;;;;4993377;28;20262;-78
2023/06/04 00:58:42;;;;;;;13.17;10.33;;;13.70;99.90;;;;;;4976199;28;20746;-77
2023/06/04 01:01:22;;;;;;;13.17;10.53;;;13.60;99.90;;;;;;4975892;28;20234;-78
2023/06/04 01:03:52;;;;;;;14.77;10.43;;;13.60;99.90;;;;;;4975383;28;20238;-77
2023/06/04 01:06:26;;;;;;;13.13;10.00;;;13.50;99.90;;;;;;4979984;28;20202;-78
2023/06/04 01:08:55;;;;;;;10.63;9.43;;;13.50;99.90;;;;;;4997163;28;20224;-78
2023/06/04 01:11:32;;;;;;;11.00;9.83;;;13.50;99.90;;;;;;4978940;28;20209;-78
2023/06/04 01:13:59;;;;;;;10.27;8.30;;;13.40;99.90;;;;;;4990532;28;20197;-78
2023/06/04 01:16:29;;;;;;;11.50;9.70;;;13.40;99.90;;;;;;4978693;28;20623;-77
2023/06/04 01:19:02;;;;;;;12.03;9.27;;;13.40;99.90;;;;;;4979117;28;20730;-78
2023/06/04 01:21:30;;;;;;;11.23;9.17;;;13.30;99.90;;;;;;4996904;28;20256;-78
2023/06/04 01:24:02;;;;;;;12.57;9.37;;;13.30;99.90;;;;;;4997121;28;20559;-78
2023/06/04 01:26:31;;;;;;;11.30;9.10;;;13.40;99.90;;;;;;4979356;28;20732;-77
2023/06/04 01:28:59;;;;;;;10.83;9.00;;;13.30;99.90;;;;;;4979369;28;20218;-78
2023/06/04 01:31:32;;;;;;;12.67;8.87;;;13.40;99.90;;;;;;4979151;28;20201;-77
2023/06/04 01:33:59;;;;;;;12.53;8.63;;;13.40;99.90;;;;;;4978797;28;20209;-77
2023/06/04 01:36:26;;;;;;;15.30;10.70;;;13.30;99.90;;;;;;4978755;28;20210;-78
2023/06/04 01:38:53;;;;;;;13.07;8.67;;;13.30;99.90;;;;;;4985610;28;20228;-77
2023/06/04 01:41:20;;;;;;;12.93;8.87;;;13.20;99.90;;;;;;4978273;28;20206;-78
2023/06/04 01:43:47;;;;;;;12.73;9.10;;;13.20;99.90;;;;;;4978290;28;20206;-77
2023/06/04 01:46:14;;;;;;;12.73;9.40;;;13.20;99.90;;;;;;4978000;28;20746;-77
2023/06/04 01:48:42;;;;;;;12.80;9.67;;;13.10;99.90;;;;;;4978154;28;20651;-79
2023/06/04 01:51:08;;;;;;;11.73;10.10;;;13.00;99.90;;;;;;4977487;28;20216;-79
2023/06/04 01:53:35;;;;;;;9.93;8.87;;;13.00;99.90;;;;;;4995231;28;20201;-77
2023/06/04 01:56:02;;;;;;;11.93;10.13;;;13.00;99.90;;;;;;4978358;28;20204;-77
2023/06/04 01:58:31;;;;;;;12.10;9.43;;;13.00;99.90;;;;;;4994856;28;20237;-78
2023/06/04 02:00:59;;;;;;;11.60;9.23;;;12.90;99.90;;;;;;4974315;28;20230;-77
2023/06/04 02:03:27;;;;;;;11.43;8.53;;;12.90;99.90;;;;;;4975568;28;20205;-77
2023/06/04 02:05:55;;;;;;;10.50;8.73;;;12.90;99.90;;;;;;4996103;28;20711;-77
2023/06/04 02:08:25;;;;;;;13.90;10.30;;;12.80;99.90;;;;;;4978553;28;20217;-77
2023/06/04 02:10:52;;;;;;;13.33;9.33;;;12.80;99.90;;;;;;4978466;28;20190;-77
2023/06/04 02:13:19;;;;;;;11.87;9.97;;;12.80;99.90;;;;;;4994841;28;20653;-78
2023/06/04 02:15:46;;;;;;;12.10;9.30;;;12.80;99.90;;;;;;4995662;28;20201;-78
2023/06/04 02:18:16;;;;;;;10.40;8.40;;;12.80;99.90;;;;;;4978101;28;20240;-77
2023/06/04 02:20:43;;;;;;;11.80;8.40;;;12.70;99.90;;;;;;4995109;28;20218;-77
2023/06/04 02:23:12;;;;;;;10.87;9.77;;;12.70;99.90;;;;;;4978708;28;20296;-77
2023/06/04 02:25:39;;;;;;;12.00;9.03;;;12.60;99.90;;;;;;4977320;28;20205;-78
2023/06/04 02:28:07;;;;;;;11.13;8.77;;;12.60;99.90;;;;;;4995163;28;20702;-77
2023/06/04 02:30:33;;;;;;;12.33;9.50;;;12.60;99.90;;;;;;4977688;28;20561;-78
2023/06/04 02:33:01;;;;;;;13.17;10.90;;;12.60;99.90;;;;;;4978121;28;20649;-77
2023/06/04 02:35:28;;;;;;;11.87;9.70;;;12.50;99.90;;;;;;4994928;28;20207;-78
2023/06/04 02:37:57;;;;;;;10.83;9.70;;;12.50;99.90;;;;;;4994843;28;20442;-78
2023/06/04 02:40:26;;;;;;;11.93;8.77;;;12.50;99.90;;;;;;4973582;28;20235;-77
2023/06/04 02:42:53;;;;;;;13.40;9.13;;;12.50;99.90;;;;;;4974073;28;20204;-77
2023/06/04 02:45:21;;;;;;;11.77;9.80;;;12.50;99.90;;;;;;4994445;28;20232;-78
2023/06/04 02:47:48;;;;;;;10.73;9.13;;;12.40;99.90;;;;;;4976911;28;20213;-77
2023/06/04 02:50:16;;;;;;;12.30;10.43;;;12.30;99.90;;;;;;4977101;28;20217;-78
2023/06/04 02:52:43;;;;;;;11.20;10.03;;;12.30;99.90;;;;;;4977287;28;20205;-79
2023/06/04 02:55:11;;;;;;;13.67;10.30;;;12.20;99.90;;;;;;4977198;28;20207;-77
2023/06/04 02:57:41;;;;;;;11.93;9.00;;;12.20;99.90;;;;;;4974384;28;20352;-78
2023/06/04 03:00:12;;;;;;;12.27;9.83;;;12.20;99.90;;;;;;4980328;28;20280;-78
2023/06/04 03:02:42;;;;;;;12.90;9.07;;;12.20;99.90;;;;;;4975443;28;20590;-76
2023/06/04 03:05:12;;;;;;;11.20;8.53;;;12.10;99.90;;;;;;4975411;28;20268;-77
2023/06/04 03:07:40;;;;;;;11.10;8.33;;;12.10;99.90;;;;;;4974975;28;20205;-77
2023/06/04 03:10:09;;;;;;;12.50;9.07;;;12.10;99.90;;;;;;4998929;28;20228;-78
2023/06/04 03:12:36;;;;;;;10.73;8.83;;;12.10;99.90;;;;;;4992368;28;20260;-77
2023/06/04 03:15:07;;;;;;;10.10;8.87;;;12.00;99.90;;;;;;4975426;28;20288;-77
2023/06/04 03:17:34;;;;;;;11.20;9.03;;;12.00;99.90;;;;;;4974885;28;20205;-79
2023/06/04 03:20:01;;;;;;;12.43;10.03;;;12.00;99.90;;;;;;4992330;28;20751;-77
2023/06/04 03:22:28;;;;;;;10.90;9.80;;;11.90;99.90;;;;;;4974939;28;20201;-76
2023/06/04 03:24:55;;;;;;;11.00;9.43;;;11.90;99.90;;;;;;4974924;28;20694;-76
2023/06/04 03:27:22;;;;;;;10.37;9.00;;;11.90;99.90;;;;;;4988577;28;20251;-76
2023/06/04 03:29:49;;;;;;;11.57;9.63;;;12.00;99.90;;;;;;4985518;28;20229;-77
2023/06/04 03:32:18;;;;;;;12.30;9.63;;;12.00;99.90;;;;;;4990224;28;20200;-77
2023/06/04 03:34:46;;;;;;;9.93;8.87;;;11.90;99.90;;;;;;4990628;28;20256;-77
2023/06/04 03:37:13;;;;;;;11.17;9.97;;;11.90;99.90;;;;;;4991882;28;20691;-76
2023/06/04 03:39:40;;;;;;;13.07;9.87;;;11.90;99.90;;;;;;4974177;28;20253;-77
2023/06/04 03:42:10;;;;;;;10.17;9.10;;;11.90;99.90;;;;;;4974682;28;20704;-76
2023/06/04 03:44:38;;;;;;;12.33;9.00;;;11.90;99.90;;;;;;4971872;28;20232;-78
2023/06/04 03:47:05;;;;;;;11.83;9.17;;;11.90;99.90;;;;;;4985909;28;20701;-77
2023/06/04 03:49:33;;;;;;;10.47;8.87;;;11.90;99.90;;;;;;4968976;28;20274;-76
2023/06/04 03:52:01;;;;;;;12.33;9.37;;;11.90;99.90;;;;;;4964671;28;20209;-77
2023/06/04 03:54:29;;;;;;;10.20;9.00;;;11.90;99.90;;;;;;4983343;28;20196;-78
2023/06/04 03:56:55;;;;;;;12.90;9.80;;;11.90;99.90;;;;;;4990809;28;20802;-79
2023/06/04 03:59:22;;;;;;;10.73;9.07;;;11.90;99.90;;;;;;4979154;28;20313;-80
2023/06/04 04:01:49;;;;;;;10.23;8.80;;;11.90;99.90;;;;;;4975638;28;20251;-80
2023/06/04 04:04:16;;;;;;;10.03;8.97;;;12.00;99.90;;;;;;4975099;28;20682;-80
2023/06/04 04:06:44;;;;;;;9.73;8.70;;;12.00;99.90;;;;;;4974554;28;20231;-80
2023/06/04 04:09:12;;;;;;;12.80;9.30;;;12.10;99.90;;;;;;4974761;28;20303;-80
2023/06/04 04:11:39;;;;;;;11.87;8.50;;;12.20;99.90;;;;;;4974808;28;20298;-80
2023/06/04 04:14:06;;;;;;;10.80;8.43;;;12.20;99.90;;;;;;4974518;28;20671;-80
2023/06/04 04:16:34;;;;;;;11.40;8.30;;;12.20;99.90;;;;;;4973491;28;20668;-81
2023/06/04 04:19:01;;;;;;;14.13;8.23;;;12.30;99.90;;;;;;4974920;28;20228;-80
2023/06/04 04:21:27;;;;;;;9.47;8.43;;;12.40;99.90;;;;;;4974673;28;20217;-80
2023/06/04 04:23:56;;;;;;;8.63;6.97;;;12.40;99.90;;;;;;4992193;28;20200;-80
2023/06/04 04:26:23;;;;;;;11.23;7.40;;;12.50;99.90;;;;;;4974493;28;20560;-80
2023/06/04 04:28:57;;;;;;;10.57;7.80;;;12.60;99.90;;;;;;5003421;23;20267;-78
2023/06/04 04:31:25;;;;;;;7.87;6.67;;;12.80;99.90;;;;;;5006081;28;20201;-78
2023/06/04 04:33:52;;;;;;;7.70;6.90;;;12.90;99.90;;;;;;5013814;28;20207;-79
2023/06/04 04:36:20;;;;;;;10.17;7.43;;;13.00;99.90;;;;;;5016705;28;20215;-79
2023/06/04 04:38:54;;;;;;;8.70;7.43;;;13.20;99.90;;;;;;5003778;28;20221;-79
2023/06/04 04:41:25;;;;;;;9.37;7.67;;;13.40;99.90;;;;;;5000454;28;20219;-80
2023/06/04 04:43:54;;;;;;;8.03;6.97;;;13.50;99.90;;;;;;5003000;28;20204;-78
2023/06/04 04:46:26;;;;;;;10.57;7.80;;;13.70;99.90;;;;;;5003535;28;20209;-79
2023/06/04 04:48:53;;;;;;;9.53;7.60;;;13.90;99.90;;;;;;5004556;28;20307;-81
2023/06/04 04:51:20;;;;;;;10.93;7.30;;;14.20;99.90;;;;;;5003370;28;20249;-80
2023/06/04 04:53:47;;;;;;;9.07;7.20;;;14.90;99.90;;;;;;5003264;28;20215;-83
2023/06/04 04:56:15;;;;;;;8.03;6.30;;;15.60;99.90;;;;;;5004859;28;20276;-80
2023/06/04 04:58:47;;;;;;;9.03;7.00;;;15.80;99.90;;;;;;5004570;28;20230;-81
2023/06/04 05:01:14;;;;;;;9.10;6.60;;;15.80;99.90;;;;;;5022464;28;20231;-79
2023/06/04 05:03:42;;;;;;;8.33;6.60;;;15.70;99.90;;;;;;5002636;28;20657;-79
2023/06/04 05:06:11;;;;;;;8.97;6.27;;;15.70;99.90;;;;;;5002151;28;20239;-80
2023/06/04 05:08:38;;;;;;;9.43;6.03;;;15.60;99.90;;;;;;5001208;28;20220;-80
2023/06/04 05:11:06;;;;;;;9.33;6.20;;;15.50;99.90;;;;;;4999394;28;20688;-80
2023/06/04 05:13:33;;;;;;;7.90;6.23;;;15.60;99.90;;;;;;4995217;28;20201;-80
2023/06/04 05:16:06;;;;;;;6.50;5.67;;;15.60;99.90;;;;;;4991201;28;20663;-79
2023/06/04 05:18:35;;;;;;;8.63;5.77;;;15.60;99.90;;;;;;4998743;28;20251;-80
2023/06/04 05:21:03;;;;;;;8.20;5.70;;;15.90;99.90;;;;;;4996544;28;20694;-80
2023/06/04 05:23:34;;;;;;;8.87;6.17;;;16.20;99.90;;;;;;4998975;28;20254;-81
2023/06/04 05:26:02;;;;;;;6.17;5.30;;;16.30;99.90;;;;;;4989173;28;20205;-78
2023/06/04 05:28:29;;;;;;;7.20;6.00;;;16.40;99.90;;;;;;4991561;28;20197;-82
2023/06/04 05:30:58;;;;;;;8.07;5.93;;;16.40;99.90;;;;;;5016664;28;20220;-77
2023/06/04 05:33:27;;;;;;;8.00;6.70;;;16.40;99.90;;;;;;4994792;28;20201;-77
2023/06/04 05:35:59;;;;;;;10.23;6.30;;;16.40;99.90;;;;;;4994406;28;20193;-76
2023/06/04 05:38:30;;;;;;;7.40;5.87;;;16.60;99.90;;;;;;4999226;28;20210;-77
2023/06/04 05:40:58;;;;;;;7.03;6.07;;;16.90;99.90;;;;;;5000210;28;20208;-76
2023/06/04 05:43:29;;;;;;;7.57;5.73;;;17.30;99.90;;;;;;4990358;28;20242;-77
2023/06/04 05:45:56;;;;;;;8.27;5.93;;;17.50;99.90;;;;;;5000159;28;20196;-78
2023/06/04 05:48:23;;;;;;;8.00;5.90;;;17.60;99.90;;;;;;4998637;28;20211;-77
2023/06/04 05:50:51;;;;;;;8.93;6.27;;;17.80;99.90;;;;;;4999395;28;20196;-77
2023/06/04 05:53:18;;;;;;;6.50;5.70;;;18.20;99.90;;;;;;5004083;28;20292;-77
2023/06/04 05:55:47;;;;;;;9.07;5.73;;;18.60;99.90;;;;;;5004323;28;20220;-77
2023/06/04 05:58:14;;;;;;;8.20;5.47;;;19.20;99.90;;;;;;5023135;28;20200;-78
2023/06/04 06:00:42;;;;;;;9.00;5.70;;;19.50;99.90;;;;;;5004151;28;20679;-76
2023/06/04 06:03:09;;;;;;;8.03;5.73;;;19.90;99.90;;;;;;5000743;28;20207;-78
2023/06/04 06:05:42;;;;;;;7.63;5.70;;;20.00;99.90;;;;;;5006563;28;20603;-78
2023/06/04 06:08:10;;;;;;;8.30;5.33;;;20.20;99.90;;;;;;5005202;28;20213;-77
2023/06/04 06:10:37;;;;;;;7.50;5.17;;;20.40;99.90;;;;;;5002115;28;20240;-78
2023/06/04 06:13:04;;;;;;;7.47;5.40;;;20.90;99.90;;;;;;5006229;28;20212;-77
2023/06/04 06:15:31;;;;;;;7.33;5.13;;;21.20;99.90;;;;;;5007719;28;20264;-78
2023/06/04 06:17:58;;;;;;;7.30;5.27;;;21.40;99.90;;;;;;5006346;28;20655;-77
2023/06/04 06:20:26;;;;;;;10.13;5.90;;;21.20;99.90;;;;;;5007160;28;20291;-78
2023/06/04 06:22:53;;;;;;;6.90;5.17;;;21.10;99.90;;;;;;5006543;28;20223;-78
2023/06/04 06:25:24;;;;;;;7.53;4.73;;;21.30;99.90;;;;;;5007371;28;20239;-77
2023/06/04 06:27:57;;;;;;;6.43;5.10;;;21.70;99.90;;;;;;5006868;28;20195;-78
2023/06/04 06:30:26;;;;;;;6.93;5.30;;;21.70;99.90;;;;;;5007332;28;20253;-78
2023/06/04 06:32:53;;;;;;;7.60;5.50;;;21.70;99.90;;;;;;5024300;28;20197;-78
2023/06/04 06:35:20;;;;;;;7.00;4.80;;;21.50;99.90;;;;;;5007663;28;20296;-78
2023/06/04 06:37:46;;;;;;;6.57;5.13;;;21.80;99.90;;;;;;5006474;28;20307;-78
2023/06/04 06:40:14;;;;;;;6.77;4.97;;;22.00;99.90;;;;;;5006569;28;20644;-78
2023/06/04 06:42:42;;;;;;;5.30;4.37;;;21.90;99.90;;;;;;5024811;28;20223;-78
2023/06/04 06:45:09;;;;;;;6.77;5.40;;;22.10;99.90;;;;;;5016942;28;20192;-78
2023/06/04 06:47:36;;;;;;;5.43;4.77;;;22.30;99.90;;;;;;5024815;28;20701;-78
2023/06/04 06:50:03;;;;;;;6.97;4.30;;;22.30;99.90;;;;;;5024103;28;20224;-78
2023/06/04 06:52:30;;;;;;;8.57;4.40;;;22.40;99.90;;;;;;5025442;28;20200;-78
2023/06/04 06:54:57;;;;;;;7.77;4.53;;;22.60;99.90;;;;;;5006298;28;20196;-78
2023/06/04 06:57:24;;;;;;;7.33;4.13;;;22.80;99.90;;;;;;5000808;28;20227;-78
2023/06/04 06:59:53;;;;;;;7.43;4.10;;;22.80;99.90;;;;;;5018443;28;20744;-78
2023/06/04 07:02:20;;;;;;;4.53;3.50;;;23.10;99.90;;;;;;5023037;28;20272;-79
2023/06/04 07:04:47;;;;;;;4.60;3.40;;;23.10;99.90;;;;;;5025443;28;20193;-78
2023/06/04 07:07:14;;;;;;;7.27;3.70;;;23.50;99.90;;;;;;5025437;28;20196;-78
2023/06/04 07:09:41;;;;;;;4.53;3.57;;;23.70;99.90;;;;;;5026110;28;20219;-78
2023/06/04 07:12:08;;;;;;;5.50;4.00;;;23.70;99.90;;;;;;5007610;28;20201;-78
2023/06/04 07:14:34;;;;;;;4.93;3.70;;;23.90;99.90;;;;;;5025564;28;20201;-77
2023/06/04 07:17:03;;;;;;;8.07;3.60;;;23.40;99.90;;;;;;5025531;28;20264;-79
2023/06/04 07:19:30;;;;;;;6.13;4.47;;;23.80;99.90;;;;;;5006147;28;20212;-78
2023/06/04 07:21:56;;;;;;;5.80;4.03;;;24.00;99.90;;;;;;5007234;28;20221;-79
2023/06/04 07:24:23;;;;;;;5.33;4.20;;;24.00;99.90;;;;;;5008027;28;20204;-78
2023/06/04 07:26:50;;;;;;;4.60;3.70;;;23.80;99.90;;;;;;5007150;28;20586;-77
2023/06/04 07:29:17;;;;;;;5.17;4.50;;;23.90;99.90;;;;;;5025844;28;20649;-77
2023/06/04 07:31:44;;;;;;;5.33;4.83;;;24.20;99.90;;;;;;5026079;28;20193;-77
2023/06/04 07:34:12;;;;;;;4.80;4.30;;;24.30;99.90;;;;;;5017078;28;20193;-77
2023/06/04 07:36:39;;;;;;;7.80;5.40;;;24.60;99.90;;;;;;4999419;28;20319;-79
2023/06/04 07:39:05;;;;;;;6.07;4.80;;;24.50;99.90;;;;;;5025311;28;20227;-79
2023/06/04 07:41:32;;;;;;;6.53;5.17;;;24.50;99.90;;;;;;5025555;28;20213;-78
2023/06/04 07:43:59;;;;;;;4.67;3.40;;;24.70;99.90;;;;;;5025322;28;20188;-78
2023/06/04 07:46:26;;;;;;;4.80;3.50;;;25.10;99.90;;;;;;5025599;28;20537;-78
2023/06/04 07:48:56;;;;;;;4.07;3.40;;;25.10;99.40;;;;;;4997997;28;20296;-81
2023/06/04 07:51:25;;;;;;;4.77;3.37;;;25.00;99.90;;;;;;5000031;28;20196;-82
2023/06/04 07:53:52;;;;;;;4.50;3.27;;;25.20;99.90;;;;;;4995267;28;20201;-80
2023/06/04 07:56:19;;;;;;;5.53;3.43;;;25.30;98.90;;;;;;5021978;28;20193;-81
2023/06/04 07:58:46;;;;;;;6.10;4.50;;;25.20;99.90;;;;;;5022927;28;20216;-80
2023/06/04 08:01:13;;;;;;;8.67;5.03;;;25.10;99.80;;;;;;5003705;28;20677;-80
2023/06/04 08:03:41;;;;;;;6.57;5.67;;;24.60;98.00;;;;;;4995527;28;20274;-80
2023/06/04 08:06:08;;;;;;;6.60;6.07;;;24.20;99.10;;;;;;5000025;28;20197;-82
2023/06/04 08:08:36;;;;;;;6.33;5.80;;;24.40;99.80;;;;;;5016216;28;20192;-81
2023/06/04 08:11:03;;;;;;;5.97;4.33;;;24.70;99.90;;;;;;5016845;28;20250;-82
2023/06/04 08:13:30;;;;;;;7.13;5.87;;;25.10;99.50;;;;;;5020836;28;20283;-82
2023/06/04 08:15:57;;;;;;;5.57;4.33;;;25.10;99.40;;;;;;5016307;28;20200;-78
2023/06/04 08:18:23;;;;;;;9.87;5.27;;;25.30;99.90;;;;;;5022618;28;20215;-79
2023/06/04 08:20:51;;;;;;;5.87;4.53;;;25.00;98.40;;;;;;5009549;28;20196;-78
2023/06/04 08:23:18;;;;;;;5.90;5.03;;;24.70;98.50;;;;;;5023363;28;20223;-78
2023/06/04 08:25:46;;;;;;;6.00;5.40;;;24.80;99.20;;;;;;5023641;28;20250;-78
2023/06/04 08:28:15;;;;;;;6.00;5.03;;;25.00;99.40;;;;;;5023712;28;20243;-78
2023/06/04 08:30:42;;;;;;;5.57;5.10;;;25.30;99.60;;;;;;5004740;28;20228;-80
2023/06/04 08:33:09;;;;;;;5.30;4.63;;;25.80;99.90;;;;;;4993201;28;20683;-81
2023/06/04 08:35:37;;;;;;;6.53;5.60;;;26.20;98.90;;;;;;5023583;28;20196;-82
2023/06/04 08:38:04;;;;;;;5.63;5.13;;;26.20;99.30;;;;;;5003938;28;20196;-81
2023/06/04 08:40:34;;;;;;;5.40;5.00;;;26.60;99.10;;;;;;5017053;28;20307;-82
2023/06/04 08:43:02;;;;;;;5.53;4.00;;;26.60;98.90;;;;;;5014482;28;20224;-82
2023/06/04 08:45:33;;;;;;;5.77;5.20;;;26.30;98.00;;;;;;4997672;28;20266;-82
2023/06/04 08:48:01;;;;;;;6.17;4.53;;;26.60;98.00;;;;;;5001472;28;20211;-81
2023/06/04 08:50:28;;;;;;;4.80;3.57;;;27.00;99.20;;;;;;5004376;28;20589;-81
2023/06/04 08:52:56;;;;;;;6.90;3.47;;;26.90;97.20;;;;;;5004034;28;20235;-81
2023/06/04 08:55:23;;;;;;;5.57;4.47;;;25.90;96.60;;;;;;5022677;28;20276;-81
2023/06/04 08:57:51;;;;;;;4.87;4.47;;;25.80;97.90;;;;;;4999054;28;20197;-81
2023/06/04 09:00:20;;;;;;;4.73;4.33;;;26.00;99.20;;;;;;5022467;28;20267;-82
2023/06/04 09:02:48;;;;;;;6.23;4.90;;;26.30;99.20;;;;;;5004397;28;20711;-81
2023/06/04 09:05:20;;;;;;;6.13;5.63;;;26.70;97.40;;;;;;4995740;28;20231;-81
2023/06/04 09:07:49;;;;;;;6.00;3.90;;;26.90;97.10;;;;;;5021606;28;20663;-82
2023/06/04 09:10:19;;;;;;;4.03;3.60;;;26.90;97.60;;;;;;5023732;28;20223;-82
2023/06/04 09:12:50;;;;;;;4.87;4.33;;;26.30;96.20;;;;;;5024344;28;20699;-75
2023/06/04 09:15:16;;;;;;;6.47;4.13;;;26.50;97.40;;;;;;5013841;28;20679;-82
2023/06/04 09:17:45;;;;;;;5.60;5.00;;;26.70;97.70;;;;;;5003330;28;20196;-83
2023/06/04 09:20:20;;;;;;;6.50;5.90;;;27.00;96.80;;;;;;5009432;28;20221;-82
2023/06/04 09:22:47;;;;;;;6.33;5.73;;;27.30;97.60;;;;;;4995887;28;20316;-82
2023/06/04 09:25:21;;;;;;;4.97;3.80;;;27.40;96.00;;;;;;5003386;28;20189;-82
2023/06/04 09:27:50;;;;;;;5.10;3.40;;;27.50;96.10;;;;;;5000395;28;20200;-82
2023/06/04 09:30:17;;;;;;;5.20;4.03;;;27.60;94.70;;;;;;5012398;28;20249;-81
2023/06/04 09:32:46;;;;;;;5.97;5.43;;;27.40;95.40;;;;;;5011330;28;20201;-81
2023/06/04 09:35:15;;;;;;;6.83;6.27;;;27.70;96.70;;;;;;4988450;28;20197;-82
2023/06/04 09:37:42;;;;;;;5.67;5.10;;;27.40;94.10;;;;;;4993446;28;20205;-82
2023/06/04 09:40:13;;;;;;;13.07;3.83;;;27.00;95.50;;;;;;4997839;28;20266;-81
2023/06/04 09:42:44;;;;;;;6.77;5.40;;;27.30;96.40;;;;;;5014194;28;20225;-82
2023/06/04 09:45:11;;;;;;;8.93;5.73;;;27.50;95.00;;;;;;4999929;28;20235;-81
2023/06/04 09:47:43;;;;;;;7.00;6.37;;;27.50;95.70;;;;;;4991990;28;20260;-81
2023/06/04 09:50:12;;;;;;;4.73;3.50;;;27.60;95.90;;;;;;5020851;28;20212;-81
2023/06/04 09:52:40;;;;;;;8.93;3.93;;;27.60;95.30;;;;;;5017599;28;20195;-81
2023/06/04 09:55:19;;;;;;;7.13;6.20;;;27.90;97.10;;;;;;5000380;28;20291;-82
2023/06/04 09:57:48;;;;;;;7.70;5.03;;;28.00;94.40;;;;;;4995438;28;20209;-80
2023/06/04 10:00:18;;;;;;;4.40;3.13;;;28.20;95.60;;;;;;4998138;28;20247;-81
2023/06/04 10:02:45;;;;;;;6.30;5.70;;;28.10;93.70;;;;;;5008870;28;20255;-82
2023/06/04 10:05:14;;;;;;;7.10;6.50;;;27.70;93.90;;;;;;5008516;28;20209;-82
2023/06/04 10:07:44;;;;;;;7.60;5.60;;;27.80;95.30;;;;;;5001128;28;20201;-81
2023/06/04 10:10:16;;;;;;;4.30;3.80;;;27.90;93.80;;;;;;5018340;28;20225;-81
2023/06/04 10:12:43;;;;;;;5.07;3.90;;;27.70;95.40;;;;;;5015011;28;20203;-81
2023/06/04 10:15:13;;;;;;;4.50;3.43;;;27.80;93.50;;;;;;5018672;28;20205;-78
2023/06/04 10:17:40;;;;;;;5.33;3.40;;;27.60;93.90;;;;;;5015761;28;20683;-78
2023/06/04 10:20:10;;;;;;;7.03;3.60;;;27.80;93.80;;;;;;4998261;28;20232;-79
2023/06/04 10:22:39;;;;;;;3.67;2.97;;;27.60;92.50;;;;;;4996813;28;20223;-78
2023/06/04 10:25:07;;;;;;;3.70;3.27;;;27.60;94.80;;;;;;4996820;28;20214;-78
2023/06/04 10:27:35;;;;;;;8.70;6.40;;;27.50;93.60;;;;;;5014343;28;20617;-78
2023/06/04 10:30:03;;;;;;;5.37;4.57;;;27.00;93.60;;;;;;5015940;28;20292;-78
2023/06/04 10:32:30;;;;;;;6.43;5.30;;;27.30;95.20;;;;;;5013014;28;20184;-78
2023/06/04 10:34:58;;;;;;;5.00;4.60;;;27.20;94.00;;;;;;5008530;28;20205;-77
2023/06/04 10:37:26;;;;;;;5.13;4.63;;;27.30;95.00;;;;;;5013758;28;20197;-78
2023/06/04 10:39:55;;;;;;;4.73;4.30;;;27.20;94.10;;;;;;4994705;28;20224;-78
2023/06/04 10:42:23;;;;;;;5.03;4.30;;;27.40;93.50;;;;;;4991580;28;20213;-78
2023/06/04 10:44:51;;;;;;;4.97;4.00;;;27.50;93.60;;;;;;5018660;28;20196;-77
2023/06/04 10:47:22;;;;;;;5.20;4.70;;;27.50;94.20;;;;;;4997979;28;20243;-78
2023/06/04 10:49:50;;;;;;;7.67;5.70;;;27.10;92.40;;;;;;5014802;28;20220;-77
2023/06/04 10:52:17;;;;;;;6.70;6.00;;;26.90;92.90;;;;;;5015303;28;20718;-78
2023/06/04 10:54:46;;;;;;;6.23;3.93;;;26.60;94.30;;;;;;4996369;28;20201;-78
2023/06/04 10:57:16;;;;;;;6.07;5.53;;;26.60;92.30;;;;;;5015092;28;20232;-78
2023/06/04 10:59:53;;;;;;;6.10;4.23;;;26.30;93.90;;;;;;5003743;28;20227;-78
2023/06/04 11:02:20;;;;;;;5.67;4.23;;;26.50;93.00;;;;;;5015308;28;20286;-78
2023/06/04 11:04:47;;;;;;;5.00;4.00;;;26.70;93.30;;;;;;5014277;28;20207;-78
2023/06/04 11:07:14;;;;;;;5.20;4.00;;;26.30;93.60;;;;;;4994754;28;20739;-77
2023/06/04 11:09:49;;;;;;;5.20;4.70;;;26.50;93.90;;;;;;5014102;28;20216;-77
2023/06/04 11:12:17;;;;;;;4.80;3.70;;;26.30;93.90;;;;;;5001143;28;20547;-82
2023/06/04 11:14:54;;;;;;;7.97;4.40;;;26.50;93.80;;;;;;5003439;28;20219;-82
2023/06/04 11:17:21;;;;;;;5.27;4.43;;;26.40;92.50;;;;;;4998174;28;20205;-82
2023/06/04 11:19:48;;;;;;;5.70;4.20;;;26.40;92.80;;;;;;5019401;28;20217;-82
2023/06/04 11:22:15;;;;;;;6.57;3.97;;;26.30;93.10;;;;;;5001481;28;20258;-80
2023/06/04 11:24:42;;;;;;;7.70;7.00;;;26.10;93.20;;;;;;5002345;28;20227;-82
2023/06/04 11:27:09;;;;;;;7.83;7.07;;;25.80;92.40;;;;;;5005689;28;20212;-82
2023/06/04 11:29:37;;;;;;;9.13;7.47;;;25.80;92.70;;;;;;5018542;28;20248;-81
2023/06/04 11:32:05;;;;;;;8.03;5.47;;;25.80;93.40;;;;;;5000025;28;20212;-82
2023/06/04 11:34:33;;;;;;;6.37;4.20;;;25.80;93.70;;;;;;5001014;28;20204;-82
2023/06/04 11:37:09;;;;;;;8.50;4.63;;;25.70;93.40;;;;;;4999248;28;20201;-81
2023/06/04 11:39:39;;;;;;;5.67;4.13;;;25.50;93.20;;;;;;4990917;28;20220;-82
2023/06/04 11:42:07;;;;;;;7.10;6.40;;;25.50;94.20;;;;;;5000768;28;20223;-82
2023/06/04 11:44:34;;;;;;;6.00;5.20;;;25.70;94.30;;;;;;5021173;28;20217;-81
2023/06/04 11:47:06;;;;;;;6.87;6.17;;;26.00;92.90;;;;;;5000441;28;20212;-80
2023/06/04 11:49:35;;;;;;;7.50;6.23;;;26.10;94.30;;;;;;5019916;28;20460;-80
2023/06/04 11:52:03;;;;;;;6.13;5.53;;;26.00;93.60;;;;;;5001026;28;20232;-81
2023/06/04 11:54:30;;;;;;;7.40;6.70;;;26.10;94.50;;;;;;5001672;28;20234;-79
2023/06/04 11:56:56;;;;;;;7.30;6.60;;;26.00;93.20;;;;;;5018834;28;20228;-81
2023/06/04 11:59:24;;;;;;;7.50;6.90;;;26.00;93.90;;;;;;5002211;28;20219;-81
2023/06/04 12:01:51;;;;;;;7.37;6.67;;;26.00;93.60;;;;;;5019662;28;20227;-81
2023/06/04 12:04:20;;;;;;;7.63;6.73;;;25.90;93.10;;;;;;5021280;28;20271;-80
2023/06/04 12:06:53;;;;;;;7.77;7.07;;;25.80;93.20;;;;;;5018381;28;20276;-81
2023/06/04 12:09:22;;;;;;;4.60;4.13;;;25.50;93.80;;;;;;5000956;28;20224;-80
2023/06/04 12:11:49;;;;;;;6.23;4.47;;;25.30;93.40;;;;;;5020250;28;20204;-80
2023/06/04 12:14:18;;;;;;;5.73;4.23;;;25.40;93.70;;;;;;5004772;28;20200;-81
2023/06/04 12:16:54;;;;;;;6.23;4.80;;;25.70;92.90;;;;;;5021859;28;20196;-80
2023/06/04 12:19:23;;;;;;;7.13;4.50;;;25.50;92.70;;;;;;5001326;28;20274;-80
2023/06/04 12:22:01;;;;;;;7.50;6.90;;;25.50;92.70;;;;;;5018979;28;20196;-81
2023/06/04 12:24:28;;;;;;;8.00;6.60;;;25.50;93.00;;;;;;5002768;28;20315;-81
2023/06/04 12:27:02;;;;;;;7.70;7.00;;;25.50;92.90;;;;;;5001735;28;20659;-80
2023/06/04 12:29:29;;;;;;;6.50;5.87;;;25.70;92.60;;;;;;4998362;28;20745;-79
2023/06/04 12:32:03;;;;;;;6.73;6.00;;;25.80;92.70;;;;;;5019613;28;20192;-81
2023/06/04 12:34:31;;;;;;;6.40;5.80;;;25.80;91.30;;;;;;5017689;28;20221;-80
2023/06/04 12:36:58;;;;;;;7.00;5.60;;;25.50;92.20;;;;;;5000487;28;20224;-81
2023/06/04 12:39:25;;;;;;;6.37;5.77;;;25.40;92.50;;;;;;5000061;28;20226;-80
2023/06/04 12:41:52;;;;;;;5.87;4.30;;;25.50;92.60;;;;;;5020002;28;20189;-81
2023/06/04 12:44:18;;;;;;;6.10;4.83;;;25.60;92.80;;;;;;5000400;28;20220;-80
2023/06/04 12:46:45;;;;;;;6.57;4.90;;;25.70;91.40;;;;;;5018989;28;20209;-81
2023/06/04 12:49:12;;;;;;;6.50;5.10;;;25.50;91.00;;;;;;5016395;28;20223;-81